Time;durP1;ratioP1;P1;durP2;ratioP2;P2;SDS_P1;SDS_P2;PMS_P1;PMS_P2;Temp;Humidity;BMP_temperature;BMP_pressure;BME280_temperature;BME280_humidity;BME280_pressure;Samples;Min_cycle;Max_cycle;Signal;HPM_P1;HPM_P2
2021/06/04 00:01:09;;;;;;;5.47;4.75;;;;;;;15.57;79.80;96087.56;5012054;28;20241;-74
2021/06/04 00:03:35;;;;;;;5.65;5.07;;;;;;;15.58;80.20;96094.44;5011136;28;20289;-74
2021/06/04 00:06:02;;;;;;;6.05;5.43;;;;;;;15.66;79.45;96092.84;4994697;28;20214;-74
2021/06/04 00:08:27;;;;;;;4.55;4.25;;;;;;;15.68;79.06;96093.47;5010049;28;20563;-73
2021/06/04 00:11:00;;;;;;;6.18;4.85;;;;;;;15.75;78.70;96091.84;5011796;28;20171;-74
2021/06/04 00:13:25;;;;;;;7.35;4.90;;;;;;;15.75;78.65;96097.06;5010927;28;20729;-74
2021/06/04 00:15:53;;;;;;;4.85;4.43;;;;;;;15.79;78.44;96091.31;5008483;28;20274;-73
2021/06/04 00:18:19;;;;;;;5.47;4.80;;;;;;;15.82;77.87;96098.06;5010626;28;20175;-73
2021/06/04 00:20:44;;;;;;;5.15;4.75;;;;;;;15.91;77.17;96097.03;5011884;28;20179;-74
2021/06/04 00:23:10;;;;;;;4.43;4.03;;;;;;;15.95;76.71;96092.28;5010799;28;20198;-73
2021/06/04 00:25:37;;;;;;;5.40;4.90;;;;;;;15.91;76.90;96091.81;5009600;28;20241;-74
2021/06/04 00:28:03;;;;;;;5.82;4.63;;;;;;;15.86;77.16;96083.63;4994405;28;20609;-74
2021/06/04 00:30:28;;;;;;;4.88;4.45;;;;;;;15.86;77.01;96086.25;5010376;28;20174;-74
2021/06/04 00:32:54;;;;;;;5.32;4.60;;;;;;;15.82;77.01;96077.91;5010210;28;20206;-74
2021/06/04 00:35:19;;;;;;;4.80;4.30;;;;;;;15.80;76.74;96079.03;5008590;28;20692;-74
2021/06/04 00:37:45;;;;;;;6.10;4.28;;;;;;;15.84;76.03;96080.34;5010529;28;20187;-74
2021/06/04 00:40:17;;;;;;;5.63;4.57;;;;;;;15.84;75.54;96080.34;5011838;28;20190;-74
2021/06/04 00:42:44;;;;;;;4.95;4.40;;;;;;;15.85;75.29;96072.34;5010633;28;20168;-74
2021/06/04 00:45:13;;;;;;;4.72;4.30;;;;;;;15.88;74.96;96070.34;5010353;28;20213;-73
2021/06/04 00:47:39;;;;;;;5.63;4.18;;;;;;;15.82;74.98;96080.53;5010257;28;20183;-74
2021/06/04 00:50:09;;;;;;;4.90;3.83;;;;;;;15.83;74.59;96074.31;5010401;28;20179;-74
2021/06/04 00:52:35;;;;;;;4.38;3.92;;;;;;;15.73;75.34;96073.69;5010037;28;20301;-74
2021/06/04 00:55:03;;;;;;;5.32;3.90;;;;;;;15.75;75.00;96078.75;5010456;28;20213;-73
2021/06/04 00:57:28;;;;;;;4.50;4.10;;;;;;;15.76;74.73;96072.53;5006536;28;20190;-73
2021/06/04 01:00:38;;;;;;;4.53;4.13;;;;;;;15.73;75.02;96073.69;4993903;28;20182;-74
2021/06/04 01:03:05;;;;;;;4.20;3.80;;;;;;;15.69;75.51;96061.88;5009827;28;20218;-73
2021/06/04 01:05:31;;;;;;;3.80;3.50;;;;;;;15.68;75.18;96069.91;5012551;28;20199;-73
2021/06/04 01:08:11;;;;;;;4.68;3.50;;;;;;;15.64;75.07;96069.44;5013157;28;20179;-73
2021/06/04 01:10:47;;;;;;;3.90;3.50;;;;;;;15.71;74.64;96074.81;5008993;28;20665;-73
2021/06/04 01:13:29;;;;;;;4.78;3.55;;;;;;;15.79;74.12;96072.16;4997866;28;20217;-74
2021/06/04 01:16:10;;;;;;;3.92;3.28;;;;;;;15.80;73.95;96069.38;5014347;28;20186;-74
2021/06/04 01:19:15;;;;;;;3.78;3.47;;;;;;;15.87;73.57;96066.91;5012974;28;20198;-73
2021/06/04 01:21:47;;;;;;;4.68;3.45;;;;;;;15.87;73.86;96066.91;5009507;28;20215;-74
2021/06/04 01:24:19;;;;;;;3.50;3.15;;;;;;;15.91;73.68;96070.03;5014114;28;20829;-73
2021/06/04 01:26:51;;;;;;;5.15;3.40;;;;;;;15.91;73.56;96068.25;5013974;28;20195;-74
2021/06/04 01:29:21;;;;;;;4.25;3.85;;;;;;;15.89;73.62;96067.56;5012767;28;20187;-74
2021/06/04 01:31:50;;;;;;;3.80;3.40;;;;;;;15.85;74.01;96072.34;5013487;28;20240;-74
2021/06/04 01:34:20;;;;;;;3.67;3.15;;;;;;;15.86;73.83;96073.16;5013577;28;20296;-74
2021/06/04 01:36:51;;;;;;;3.88;3.00;;;;;;;15.80;74.17;96072.00;5013721;28;20373;-73
2021/06/04 01:39:20;;;;;;;5.03;3.45;;;;;;;15.80;73.93;96071.19;5012005;28;20194;-74
2021/06/04 01:41:47;;;;;;;4.38;3.25;;;;;;;15.79;73.83;96080.03;5013360;28;20187;-74
2021/06/04 01:44:38;;;;;;;4.95;3.00;;;;;;;15.80;73.87;96073.81;4997342;28;20191;-74
2021/06/04 01:47:08;;;;;;;3.40;3.10;;;;;;;15.77;74.05;96077.59;5013449;28;20248;-73
2021/06/04 01:49:39;;;;;;;4.88;3.42;;;;;;;15.70;74.38;96073.16;5013695;28;20225;-73
2021/06/04 01:52:27;;;;;;;3.83;3.28;;;;;;;15.67;74.71;96070.91;5011812;28;20183;-74
2021/06/04 01:55:04;;;;;;;5.57;3.65;;;;;;;15.69;74.47;96071.53;5013503;28;20191;-74
2021/06/04 01:57:37;;;;;;;3.78;3.30;;;;;;;15.73;74.21;96072.88;5013257;28;20233;-73
2021/06/04 02:00:08;;;;;;;3.20;2.90;;;;;;;15.77;74.26;96079.38;5013356;28;20179;-74
2021/06/04 02:02:34;;;;;;;3.40;3.13;;;;;;;15.78;74.18;96073.16;5011765;28;20187;-74
2021/06/04 02:05:00;;;;;;;4.32;3.67;;;;;;;15.86;74.07;96081.00;4996845;28;20730;-74
2021/06/04 02:07:30;;;;;;;3.63;3.20;;;;;;;15.85;74.01;96076.75;5013383;28;20183;-74
2021/06/04 02:09:56;;;;;;;3.83;3.30;;;;;;;15.81;74.21;96075.44;4996774;28;20186;-74
2021/06/04 02:12:22;;;;;;;3.75;3.40;;;;;;;15.84;74.54;96075.94;5012724;28;20203;-74
2021/06/04 02:14:52;;;;;;;3.53;3.22;;;;;;;15.86;74.32;96067.91;4996448;28;20221;-74
2021/06/04 02:17:26;;;;;;;5.53;3.58;;;;;;;15.93;73.62;96075.91;5012220;28;20620;-74
2021/06/04 02:20:16;;;;;;;3.40;3.10;;;;;;;16.05;73.42;96071.94;5013125;28;20192;-74
2021/06/04 02:23:04;;;;;;;3.40;3.10;;;;;;;16.01;74.10;96076.72;5011624;28;20179;-74
2021/06/04 02:25:51;;;;;;;4.18;3.13;;;;;;;16.05;73.59;96082.44;5002493;28;20196;-74
2021/06/04 02:28:38;;;;;;;3.70;3.25;;;;;;;16.01;73.93;96084.56;4993328;28;20885;-74
2021/06/04 02:31:35;;;;;;;3.80;3.50;;;;;;;16.01;73.57;96076.72;4994018;28;20198;-74
2021/06/04 02:34:11;;;;;;;4.68;3.45;;;;;;;15.96;74.90;96079.00;5005103;28;20293;-74
2021/06/04 02:36:40;;;;;;;3.83;3.47;;;;;;;15.94;75.19;96065.28;5012566;28;20673;-73
2021/06/04 02:39:22;;;;;;;4.43;3.47;;;;;;;15.83;77.06;96076.09;5012697;28;20175;-73
2021/06/04 02:41:54;;;;;;;4.18;3.75;;;;;;;15.78;77.20;96071.34;5012442;28;20180;-73
2021/06/04 02:44:27;;;;;;;3.17;2.95;;;;;;;15.74;77.64;96074.50;5011506;28;20206;-73
2021/06/04 02:46:57;;;;;;;3.45;3.20;;;;;;;15.73;77.60;96078.09;5012468;28;20183;-73
2021/06/04 02:49:23;;;;;;;4.72;3.72;;;;;;;15.70;77.85;96078.41;5012626;28;20182;-74
2021/06/04 02:52:08;;;;;;;4.72;3.60;;;;;;;15.67;78.49;96063.84;5011452;28;20191;-73
2021/06/04 02:54:37;;;;;;;4.97;3.70;;;;;;;15.63;78.60;96070.41;4998592;28;20203;-73
2021/06/04 02:57:07;;;;;;;4.05;3.65;;;;;;;15.66;78.68;96069.25;5012194;28;20261;-73
2021/06/04 02:59:40;;;;;;;4.07;3.50;;;;;;;15.63;78.77;96070.41;5012190;28;20175;-73
2021/06/04 03:02:14;;;;;;;4.32;3.88;;;;;;;15.54;79.50;96074.78;5012039;28;20198;-74
2021/06/04 03:04:42;;;;;;;4.43;4.03;;;;;;;15.53;79.63;96073.16;5010209;28;20222;-73
2021/06/04 03:07:12;;;;;;;5.95;3.92;;;;;;;15.44;79.85;96083.81;5011916;28;20175;-73
2021/06/04 03:09:40;;;;;;;4.13;3.75;;;;;;;15.45;79.94;96077.59;5012106;28;20635;-74
2021/06/04 03:12:11;;;;;;;4.18;3.78;;;;;;;15.43;80.25;96076.94;4995508;28;20528;-73
2021/06/04 03:14:37;;;;;;;4.60;4.18;;;;;;;15.47;80.15;96084.31;5012144;28;20203;-74
2021/06/04 03:17:03;;;;;;;7.28;4.53;;;;;;;15.47;79.71;96076.47;4994215;28;20183;-74
2021/06/04 03:19:29;;;;;;;4.80;4.40;;;;;;;15.44;79.73;96079.38;5011862;28;20191;-73
2021/06/04 03:22:02;;;;;;;4.32;3.92;;;;;;;15.47;79.61;96073.84;4995421;28;20279;-74
2021/06/04 03:24:32;;;;;;;4.55;4.10;;;;;;;15.45;79.56;96078.41;5011839;28;20203;-74
2021/06/04 03:26:59;;;;;;;5.25;4.75;;;;;;;15.42;79.52;96077.91;5011439;28;20568;-73
2021/06/04 03:29:24;;;;;;;4.68;4.13;;;;;;;15.38;79.69;96074.00;5011704;28;20179;-74
2021/06/04 03:31:55;;;;;;;4.40;3.90;;;;;;;15.38;79.58;96077.44;5011323;28;20614;-74
2021/06/04 03:34:21;;;;;;;4.38;4.05;;;;;;;15.36;79.94;96082.00;4994955;28;20258;-74
2021/06/04 03:36:48;;;;;;;4.30;3.90;;;;;;;15.34;79.64;96077.91;5008101;28;20218;-74
2021/06/04 03:39:17;;;;;;;4.22;3.92;;;;;;;15.34;80.13;96086.59;5011358;28;20187;-74
2021/06/04 03:41:45;;;;;;;5.00;4.15;;;;;;;15.32;79.69;96093.78;5011291;28;20596;-74
2021/06/04 03:44:12;;;;;;;4.53;4.07;;;;;;;15.35;79.38;96093.47;5011401;28;20183;-74
2021/06/04 03:46:38;;;;;;;4.75;3.92;;;;;;;15.37;79.35;96101.97;5011349;28;20294;-74
2021/06/04 03:49:04;;;;;;;5.22;4.05;;;;;;;15.42;79.30;96104.91;5010205;28;20274;-74
2021/06/04 03:51:33;;;;;;;5.07;3.63;;;;;;;15.45;79.01;96101.13;5011042;28;20183;-74
2021/06/04 03:53:59;;;;;;;4.13;3.78;;;;;;;15.50;78.61;96109.31;4994740;28;20579;-74
2021/06/04 03:56:25;;;;;;;5.28;3.40;;;;;;;15.60;78.08;96109.97;4995060;28;20179;-74
2021/06/04 03:58:51;;;;;;;4.18;3.78;;;;;;;15.70;77.54;96112.44;5009961;28;20194;-74
2021/06/04 04:01:33;;;;;;;4.45;3.85;;;;;;;15.91;77.16;96112.75;5010811;28;20171;-74
2021/06/04 04:03:58;;;;;;;4.40;4.00;;;;;;;16.02;76.53;96109.78;5011063;28;20198;-74
2021/06/04 04:06:23;;;;;;;3.97;3.67;;;;;;;16.14;76.45;96115.47;5011080;28;20171;-74
2021/06/04 04:08:49;;;;;;;4.03;3.60;;;;;;;16.86;74.55;96126.69;5010149;28;20248;-75
2021/06/04 04:11:14;;;;;;;3.97;3.30;;;;;;;17.20;73.36;96128.94;5010613;28;20175;-74
2021/06/04 04:13:39;;;;;;;5.15;3.78;;;;;;;17.48;71.25;96134.47;5010845;28;20281;-74
2021/06/04 04:16:05;;;;;;;4.68;3.45;;;;;;;17.50;70.48;96127.25;5010804;28;20539;-74
2021/06/04 04:18:30;;;;;;;3.58;3.28;;;;;;;17.91;69.81;96120.84;5010827;28;20175;-74
2021/06/04 04:20:59;;;;;;;4.50;3.15;;;;;;;18.53;67.94;96129.19;5008525;28;20215;-74
2021/06/04 04:23:28;;;;;;;3.60;3.30;;;;;;;18.85;66.84;96133.28;5009417;28;20187;-74
2021/06/04 04:25:55;;;;;;;3.00;2.80;;;;;;;18.70;67.46;96129.84;5010743;28;20186;-74
2021/06/04 04:28:25;;;;;;;3.40;3.05;;;;;;;18.35;68.32;96121.69;5010759;28;20586;-74
2021/06/04 04:30:50;;;;;;;3.78;3.45;;;;;;;18.20;68.66;96126.16;4992572;28;20758;-74
2021/06/04 04:33:16;;;;;;;3.53;3.22;;;;;;;17.95;69.48;96122.13;5026348;28;20303;-74
2021/06/04 04:35:41;;;;;;;4.18;3.53;;;;;;;17.83;70.72;96129.63;5010657;28;20185;-74
2021/06/04 04:38:09;;;;;;;3.88;3.35;;;;;;;17.77;70.55;96122.47;5011922;28;20183;-74
2021/06/04 04:40:37;;;;;;;6.93;3.75;;;;;;;17.75;70.72;96124.44;5008056;28;20241;-74
2021/06/04 04:43:02;;;;;;;4.10;3.47;;;;;;;17.73;70.67;96127.25;5010184;28;20176;-74
2021/06/04 04:45:28;;;;;;;4.63;3.40;;;;;;;17.82;70.84;96130.63;5011762;28;20198;-75
2021/06/04 04:47:54;;;;;;;4.70;4.03;;;;;;;18.13;69.51;96146.25;5010654;28;20234;-74
2021/06/04 04:50:21;;;;;;;4.75;3.88;;;;;;;17.56;70.04;96163.28;4993978;28;20712;-74
2021/06/04 04:52:46;;;;;;;5.60;3.75;;;;;;;17.64;70.05;96167.66;5009333;28;20579;-74
2021/06/04 04:55:12;;;;;;;7.38;3.63;;;;;;;17.49;70.22;96159.75;5011535;28;20203;-74
2021/06/04 04:57:38;;;;;;;5.63;3.42;;;;;;;17.39;70.49;96166.22;5010354;28;20230;-73
2021/06/04 05:00:07;;;;;;;4.15;3.75;;;;;;;17.16;71.05;96167.03;5010357;28;20666;-74
2021/06/04 05:02:32;;;;;;;8.30;3.92;;;;;;;17.00;71.06;96161.88;5010210;28;20179;-74
2021/06/04 05:04:57;;;;;;;4.13;3.83;;;;;;;16.98;71.24;96164.66;5010244;28;20201;-74
2021/06/04 05:07:23;;;;;;;4.18;3.67;;;;;;;16.84;72.06;96167.19;5011616;28;20207;-74
2021/06/04 05:09:48;;;;;;;5.00;3.28;;;;;;;16.78;72.16;96160.81;5010563;28;20197;-74
2021/06/04 05:12:13;;;;;;;4.75;3.70;;;;;;;16.84;72.52;96161.94;5011048;28;20258;-74
2021/06/04 05:14:39;;;;;;;3.63;3.33;;;;;;;16.88;72.40;96160.63;5007857;28;20752;-74
2021/06/04 05:17:06;;;;;;;3.63;3.33;;;;;;;16.67;73.01;96161.97;5010265;28;20186;-74
2021/06/04 05:19:31;;;;;;;6.03;3.60;;;;;;;16.66;73.30;96162.97;5011414;28;20578;-73
2021/06/04 05:21:57;;;;;;;5.07;3.47;;;;;;;16.68;73.49;96165.41;5010074;28;20178;-74
2021/06/04 05:24:22;;;;;;;4.00;3.15;;;;;;;16.59;73.92;96162.00;5009298;28;20268;-74
2021/06/04 05:26:48;;;;;;;5.85;3.63;;;;;;;16.50;74.42;96160.41;5009064;28;20584;-74
2021/06/04 05:29:13;;;;;;;3.67;3.38;;;;;;;16.46;75.02;96158.31;5011279;28;20179;-74
2021/06/04 05:31:39;;;;;;;3.88;3.42;;;;;;;16.45;75.53;96157.50;5009851;28;20187;-73
2021/06/04 05:34:06;;;;;;;4.10;3.55;;;;;;;16.30;77.42;96154.75;5010512;28;20241;-75
2021/06/04 05:36:33;;;;;;;4.65;3.67;;;;;;;16.34;77.10;96150.81;5009907;28;20204;-74
2021/06/04 05:39:14;;;;;;;4.38;3.92;;;;;;;16.34;77.83;96161.28;5010092;28;20186;-75
2021/06/04 05:41:42;;;;;;;7.60;4.10;;;;;;;16.24;78.43;96149.34;5009803;28;20266;-74
2021/06/04 05:44:08;;;;;;;5.45;4.35;;;;;;;16.10;79.45;96156.91;5009971;28;20297;-75
2021/06/04 05:46:34;;;;;;;5.80;4.53;;;;;;;16.01;80.78;96157.91;4992475;28;20187;-74
2021/06/04 05:49:00;;;;;;;4.30;3.92;;;;;;;16.05;80.54;96158.41;5009873;28;20651;-74
2021/06/04 05:51:29;;;;;;;6.28;4.72;;;;;;;15.99;81.04;96162.53;5009961;28;20202;-73
2021/06/04 05:53:55;;;;;;;4.90;4.30;;;;;;;16.01;80.96;96155.31;5013406;28;20237;-74
2021/06/04 05:56:22;;;;;;;7.22;4.78;;;;;;;16.02;80.94;96162.19;5013472;28;20210;-74
2021/06/04 05:58:48;;;;;;;5.18;4.68;;;;;;;15.99;81.50;96159.06;5013340;28;20187;-74
2021/06/04 06:01:18;;;;;;;6.68;5.15;;;;;;;16.00;81.47;96158.09;4996706;28;20536;-73
2021/06/04 06:03:44;;;;;;;6.65;4.70;;;;;;;15.93;81.60;96159.72;5014514;28;20187;-73
2021/06/04 06:06:11;;;;;;;6.18;5.20;;;;;;;15.84;82.00;96162.34;5012009;28;20258;-73
2021/06/04 06:08:36;;;;;;;4.80;4.40;;;;;;;15.88;82.17;96173.31;5013230;28;20187;-73
2021/06/04 06:11:02;;;;;;;5.80;5.20;;;;;;;15.89;82.04;96169.69;5012978;28;20263;-74
2021/06/04 06:13:28;;;;;;;6.20;5.07;;;;;;;15.90;82.13;96171.34;5013064;28;20230;-73
2021/06/04 06:15:55;;;;;;;6.97;5.40;;;;;;;15.90;81.83;96166.09;4996794;28;20183;-73
2021/06/04 06:18:21;;;;;;;5.68;5.18;;;;;;;15.94;81.67;96177.91;5011427;28;20180;-74
2021/06/04 06:20:47;;;;;;;5.30;4.80;;;;;;;15.99;81.35;96169.53;5013826;28;20271;-73
2021/06/04 06:23:15;;;;;;;6.20;5.70;;;;;;;16.03;81.30;96174.28;5012959;28;20250;-73
2021/06/04 06:25:49;;;;;;;6.53;5.93;;;;;;;16.12;81.32;96177.72;5012955;28;20176;-74
2021/06/04 06:28:18;;;;;;;4.85;4.45;;;;;;;16.19;80.98;96167.38;5011431;28;20218;-73
2021/06/04 06:30:45;;;;;;;5.35;4.88;;;;;;;16.25;81.02;96175.38;5012380;28;20279;-73
2021/06/04 06:33:10;;;;;;;7.35;5.85;;;;;;;16.32;81.35;96172.91;5012618;28;20203;-73
2021/06/04 06:35:40;;;;;;;6.10;5.15;;;;;;;16.39;80.97;96172.06;5015489;28;20201;-72
2021/06/04 06:38:07;;;;;;;5.38;4.88;;;;;;;16.55;80.56;96168.59;5011166;28;20574;-72
2021/06/04 06:40:33;;;;;;;5.63;5.13;;;;;;;16.62;80.49;96166.94;5011850;28;20283;-73
2021/06/04 06:42:58;;;;;;;5.75;5.13;;;;;;;16.69;80.86;96169.69;5012518;28;20167;-73
2021/06/04 06:45:24;;;;;;;7.03;4.70;;;;;;;16.81;80.82;96172.78;5012405;28;20698;-73
2021/06/04 06:47:51;;;;;;;4.97;4.57;;;;;;;16.96;80.25;96182.41;5012184;28;20242;-72
2021/06/04 06:50:17;;;;;;;6.07;5.38;;;;;;;17.03;79.88;96184.31;5011037;28;20265;-72
2021/06/04 06:52:42;;;;;;;5.45;5.05;;;;;;;17.09;78.98;96184.44;5012106;28;20199;-73
2021/06/04 06:55:09;;;;;;;6.15;4.78;;;;;;;16.98;78.44;96184.84;5012259;28;20249;-72
2021/06/04 06:57:37;;;;;;;5.10;4.68;;;;;;;17.12;79.41;96189.34;5012292;28;20254;-72
2021/06/04 07:00:17;;;;;;;5.40;4.90;;;;;;;17.35;78.37;96185.94;5010952;28;20689;-72
2021/06/04 07:02:42;;;;;;;6.80;4.53;;;;;;;17.49;78.45;96196.53;5012915;28;20181;-72
2021/06/04 07:05:09;;;;;;;5.18;4.25;;;;;;;17.43;77.88;96194.59;5011932;28;20277;-72
2021/06/04 07:07:36;;;;;;;6.82;4.20;;;;;;;17.50;77.09;96200.78;5012380;28;20195;-72
2021/06/04 07:10:01;;;;;;;6.53;4.50;;;;;;;17.63;76.56;96199.38;5008737;28;20186;-71
2021/06/04 07:12:26;;;;;;;4.53;4.13;;;;;;;17.75;76.40;96209.31;5009918;28;20199;-73
2021/06/04 07:14:52;;;;;;;6.30;4.60;;;;;;;17.94;76.25;96212.47;4995040;28;20274;-72
2021/06/04 07:17:18;;;;;;;6.50;4.25;;;;;;;18.16;75.88;96208.97;5013098;28;20535;-72
2021/06/04 07:19:43;;;;;;;5.18;3.92;;;;;;;18.39;74.68;96214.19;5011844;28;20198;-72
2021/06/04 07:22:08;;;;;;;5.22;4.55;;;;;;;18.59;74.36;96217.09;5010397;28;20188;-72
2021/06/04 07:24:34;;;;;;;6.75;5.63;;;;;;;18.55;72.99;96213.19;5011483;28;20545;-72
2021/06/04 07:27:00;;;;;;;5.45;4.60;;;;;;;18.80;72.17;96217.22;5012845;28;20207;-71
2021/06/04 07:29:27;;;;;;;4.57;4.00;;;;;;;19.11;71.57;96217.00;4995154;28;20657;-70
2021/06/04 07:31:53;;;;;;;5.70;4.45;;;;;;;19.48;70.87;96218.63;5006667;28;20203;-72
2021/06/04 07:34:19;;;;;;;4.78;4.35;;;;;;;19.86;69.04;96223.69;5019115;28;20289;-72
2021/06/04 07:36:47;;;;;;;5.28;3.55;;;;;;;20.09;67.60;96224.31;5011385;28;20536;-72
2021/06/04 07:39:18;;;;;;;4.43;4.03;;;;;;;20.50;66.54;96222.84;5011575;28;20172;-72
2021/06/04 07:41:44;;;;;;;5.57;4.00;;;;;;;20.73;66.01;96230.47;5011149;28;20258;-72
2021/06/04 07:44:10;;;;;;;5.75;4.10;;;;;;;21.05;65.45;96226.38;4991374;28;20214;-71
2021/06/04 07:46:36;;;;;;;6.05;4.18;;;;;;;21.44;64.34;96231.84;5009753;28;20179;-72
2021/06/04 07:49:02;;;;;;;4.32;3.92;;;;;;;21.63;62.21;96230.25;5009735;28;20171;-72
2021/06/04 07:51:35;;;;;;;4.72;4.20;;;;;;;21.72;60.61;96229.06;5010803;28;20230;-72
2021/06/04 07:54:00;;;;;;;4.70;3.90;;;;;;;21.95;60.08;96225.22;5009937;28;20211;-72
2021/06/04 07:56:27;;;;;;;8.00;4.40;;;;;;;21.85;57.90;96227.47;4994872;28;20182;-72
2021/06/04 07:58:52;;;;;;;5.57;3.85;;;;;;;22.29;57.76;96233.00;5011144;28;20642;-72
2021/06/04 08:01:18;;;;;;;4.72;4.32;;;;;;;22.12;57.05;96230.97;5012051;28;20191;-72
2021/06/04 08:03:45;;;;;;;6.65;5.43;;;;;;;22.01;55.51;96224.44;5010075;28;20231;-72
2021/06/04 08:06:12;;;;;;;6.28;4.97;;;;;;;22.42;54.58;96228.72;4992951;28;20242;-72
2021/06/04 08:08:38;;;;;;;5.13;4.72;;;;;;;23.16;54.88;96221.25;5010925;28;20175;-72
2021/06/04 08:11:05;;;;;;;5.60;3.95;;;;;;;23.00;53.93;96231.50;5010762;28;20182;-72
2021/06/04 08:13:31;;;;;;;6.88;4.90;;;;;;;22.69;53.44;96232.97;5010512;28;20206;-69
2021/06/04 08:16:00;;;;;;;7.68;4.50;;;;;;;22.94;53.34;96230.50;5009302;28;20187;-71
2021/06/04 08:18:29;;;;;;;5.40;4.25;;;;;;;23.00;53.34;96234.16;5007500;28;20179;-70
2021/06/04 08:20:55;;;;;;;5.38;4.43;;;;;;;23.16;53.10;96225.75;5007256;28;20184;-71
2021/06/04 08:23:24;;;;;;;6.28;4.40;;;;;;;23.55;51.96;96231.88;5007201;28;20176;-71
2021/06/04 08:25:51;;;;;;;6.88;4.70;;;;;;;23.64;51.54;96225.34;4990405;28;20252;-71
2021/06/04 08:28:18;;;;;;;6.30;4.38;;;;;;;23.82;50.98;96225.44;5011808;28;20229;-71
2021/06/04 08:30:45;;;;;;;4.30;3.90;;;;;;;24.42;49.93;96222.34;4993816;28;20244;-71
2021/06/04 08:33:11;;;;;;;7.25;4.18;;;;;;;24.21;50.88;96220.88;5011780;28;20210;-71
2021/06/04 08:35:36;;;;;;;4.97;4.20;;;;;;;24.60;49.67;96226.88;4976992;28;20616;-72
2021/06/04 08:38:02;;;;;;;7.00;4.40;;;;;;;24.63;50.24;96221.13;5011523;28;20190;-75
2021/06/04 08:40:34;;;;;;;5.70;4.55;;;;;;;23.77;50.86;96224.47;5010557;28;20190;-75
2021/06/04 08:43:21;;;;;;;4.35;3.80;;;;;;;24.44;49.18;96228.25;5010551;28;20179;-74
2021/06/04 08:46:02;;;;;;;5.72;4.18;;;;;;;24.17;51.30;96222.31;5025433;28;20183;-74
2021/06/04 08:48:39;;;;;;;5.03;3.70;;;;;;;24.77;51.47;96226.09;5004474;28;20172;-75
2021/06/04 08:51:23;;;;;;;5.60;4.05;;;;;;;24.71;50.05;96213.69;5010316;28;20692;-73
2021/06/04 08:54:32;;;;;;;5.45;3.95;;;;;;;24.90;51.31;96219.81;5010334;28;20206;-73
2021/06/04 08:57:15;;;;;;;6.63;4.47;;;;;;;24.61;50.50;96218.69;4993648;28;20189;-73
2021/06/04 08:59:42;;;;;;;6.60;4.18;;;;;;;23.61;54.33;96226.59;4993931;28;20187;-73
2021/06/04 09:02:34;;;;;;;4.53;4.10;;;;;;;23.16;55.24;96223.09;5010220;28;20174;-73
2021/06/04 09:05:03;;;;;;;4.97;4.50;;;;;;;23.00;56.21;96229.66;5010517;28;20219;-72
2021/06/04 09:07:32;;;;;;;8.13;4.63;;;;;;;22.74;56.04;96219.13;5007978;28;20294;-73
2021/06/04 09:10:26;;;;;;;6.60;4.55;;;;;;;22.53;55.63;96210.41;5009364;28;20183;-73
2021/06/04 09:12:56;;;;;;;6.65;4.57;;;;;;;22.24;56.72;96222.22;4993751;28;20199;-70
2021/06/04 09:15:25;;;;;;;5.57;4.22;;;;;;;22.51;56.76;96211.59;5009908;28;20199;-72
2021/06/04 09:18:16;;;;;;;4.80;4.20;;;;;;;22.89;56.66;96219.72;4991907;28;20191;-71
2021/06/04 09:21:02;;;;;;;7.22;4.25;;;;;;;23.15;55.93;96216.19;5009410;28;20434;-73
2021/06/04 09:23:34;;;;;;;7.40;4.72;;;;;;;23.16;55.18;96218.63;5011788;28;20437;-73
2021/06/04 09:26:01;;;;;;;6.53;4.72;;;;;;;23.06;55.77;96218.25;5015347;28;20233;-75
2021/06/04 09:28:35;;;;;;;7.35;5.07;;;;;;;23.24;55.32;96228.16;5011087;28;20190;-74
2021/06/04 09:31:22;;;;;;;9.38;5.32;;;;;;;22.96;56.42;96227.63;5010751;28;20194;-75
2021/06/04 09:33:53;;;;;;;5.82;5.25;;;;;;;23.12;56.02;96222.69;5011565;28;20250;-73
2021/06/04 09:37:02;;;;;;;8.25;5.10;;;;;;;23.89;54.18;96218.25;5028215;28;20670;-72
2021/06/04 09:39:40;;;;;;;8.00;4.38;;;;;;;24.15;53.90;96219.88;4971503;28;20227;-74
2021/06/04 09:42:14;;;;;;;6.72;5.30;;;;;;;23.63;54.03;96215.75;5009770;28;20183;-74
2021/06/04 09:45:06;;;;;;;6.55;4.15;;;;;;;23.82;53.48;96206.84;5011406;28;20203;-73
2021/06/04 09:47:35;;;;;;;6.57;5.40;;;;;;;23.72;53.79;96209.97;5011603;28;20179;-73
2021/06/04 09:50:21;;;;;;;5.20;4.70;;;;;;;23.65;53.67;96206.56;5026674;28;20212;-74
2021/06/04 09:53:04;;;;;;;8.25;5.07;;;;;;;23.67;56.41;96206.34;5006392;28;20218;-73
2021/06/04 09:55:32;;;;;;;7.18;4.80;;;;;;;23.65;55.05;96203.09;5012714;28;20218;-72
2021/06/04 09:58:08;;;;;;;6.07;4.40;;;;;;;23.79;55.34;96212.59;5013096;28;20241;-73
2021/06/04 10:00:41;;;;;;;6.85;4.35;;;;;;;24.11;53.13;96209.91;5010358;28;20175;-74
2021/06/04 10:03:39;;;;;;;6.00;4.80;;;;;;;23.52;53.87;96209.25;5012167;28;20230;-74
2021/06/04 10:06:04;;;;;;;6.47;4.60;;;;;;;23.28;54.12;96197.56;5014718;28;20188;-73
2021/06/04 10:08:29;;;;;;;5.07;4.57;;;;;;;22.69;55.01;96193.25;5029580;28;20175;-73
2021/06/04 10:11:08;;;;;;;7.07;3.92;;;;;;;23.27;53.67;96205.72;5012773;28;20433;-72
2021/06/04 10:13:40;;;;;;;5.05;4.55;;;;;;;23.00;55.29;96202.38;5011389;28;20230;-73
2021/06/04 10:16:21;;;;;;;6.72;4.28;;;;;;;22.43;56.73;96204.69;4996634;28;20171;-72
2021/06/04 10:18:47;;;;;;;6.18;5.30;;;;;;;21.95;58.19;96196.16;4996638;28;20197;-72
2021/06/04 10:21:27;;;;;;;7.78;4.80;;;;;;;21.90;58.50;96198.56;5012822;28;20639;-73
2021/06/04 10:23:54;;;;;;;5.55;5.05;;;;;;;21.93;58.45;96195.53;5007869;28;20234;-72
2021/06/04 10:26:36;;;;;;;6.18;5.20;;;;;;;22.00;58.06;96202.47;5028530;28;20179;-73
2021/06/04 10:29:04;;;;;;;5.90;4.85;;;;;;;22.07;57.78;96189.25;5029209;28;20182;-73
2021/06/04 10:31:43;;;;;;;4.88;4.32;;;;;;;22.20;57.13;96194.56;5028841;28;20562;-73
2021/06/04 10:34:46;;;;;;;6.78;5.00;;;;;;;22.25;58.59;96197.38;5021650;28;20210;-73
2021/06/04 10:37:17;;;;;;;6.93;5.00;;;;;;;22.30;57.97;96200.25;5011513;28;20208;-74
2021/06/04 10:39:54;;;;;;;9.00;5.32;;;;;;;22.11;58.70;96193.13;5012816;28;20179;-74
2021/06/04 10:42:35;;;;;;;5.70;5.20;;;;;;;22.22;59.35;96189.06;4995999;28;20178;-75
2021/06/04 10:45:10;;;;;;;7.97;5.93;;;;;;;21.92;59.13;96197.38;5011553;28;20207;-75
2021/06/04 10:47:47;;;;;;;7.35;5.40;;;;;;;22.01;59.45;96195.34;5013602;28;20305;-75
2021/06/04 10:50:19;;;;;;;6.80;5.22;;;;;;;21.97;59.84;96181.69;5012490;28;20171;-75
2021/06/04 10:53:22;;;;;;;9.85;5.65;;;;;;;21.84;60.73;96172.97;4995976;28;20225;-75
2021/06/04 10:56:04;;;;;;;9.05;6.05;;;;;;;21.78;60.93;96172.75;4924094;29;20288;-75
2021/06/04 10:58:44;;;;;;;8.05;5.68;;;;;;;21.96;60.94;96185.38;4899033;29;20187;-75
2021/06/04 11:01:14;;;;;;;7.60;5.65;;;;;;;21.76;62.38;96185.34;4914457;29;20816;-75
2021/06/04 11:03:50;;;;;;;8.23;6.05;;;;;;;21.71;62.25;96179.84;4898776;29;20246;-75
2021/06/04 11:06:43;;;;;;;8.88;5.88;;;;;;;21.72;61.72;96170.91;4912798;29;20190;-75
2021/06/04 11:09:22;;;;;;;7.13;5.75;;;;;;;21.67;61.66;96177.81;4933497;29;20241;-74
2021/06/04 11:12:08;;;;;;;5.57;5.10;;;;;;;22.28;62.98;96169.72;4917503;29;20174;-75
2021/06/04 11:14:50;;;;;;;6.88;6.28;;;;;;;22.70;61.29;96186.13;4917181;29;20222;-75
2021/06/04 11:17:27;;;;;;;10.30;5.63;;;;;;;22.74;61.25;96201.41;4915764;29;20206;-75
2021/06/04 11:20:12;;;;;;;7.75;5.43;;;;;;;22.96;62.47;96194.00;4914425;29;20189;-73
2021/06/04 11:22:58;;;;;;;5.95;4.93;;;;;;;23.03;61.97;96186.03;4914228;29;20186;-74
2021/06/04 11:25:39;;;;;;;5.68;5.00;;;;;;;22.93;62.11;96188.34;4898601;29;20194;-73
2021/06/04 11:28:07;;;;;;;5.95;4.70;;;;;;;22.75;62.91;96183.66;4916390;29;20193;-74
2021/06/04 11:30:33;;;;;;;5.82;5.10;;;;;;;22.68;63.64;96181.03;4998527;28;20199;-74
2021/06/04 11:33:07;;;;;;;5.55;5.05;;;;;;;22.50;64.63;96189.63;5011313;28;20303;-73
2021/06/04 11:35:48;;;;;;;7.78;5.43;;;;;;;22.33;65.13;96176.00;5011628;28;20206;-75
2021/06/04 11:38:33;;;;;;;6.95;4.88;;;;;;;22.39;65.11;96178.88;5010460;28;20218;-75
2021/06/04 11:41:13;;;;;;;5.95;5.10;;;;;;;22.13;65.11;96195.56;5011278;28;20187;-75
2021/06/04 11:43:41;;;;;;;15.18;5.63;;;;;;;21.88;65.31;96190.84;4995108;28;20191;-75
2021/06/04 11:46:22;;;;;;;7.85;4.78;;;;;;;21.75;65.30;96191.66;5011616;28;20175;-75
2021/06/04 11:48:59;;;;;;;5.63;4.32;;;;;;;21.19;66.25;96181.31;5010670;28;20186;-75
2021/06/04 11:51:36;;;;;;;6.97;3.80;;;;;;;20.88;66.58;96178.38;5003198;28;20171;-74
2021/06/04 11:54:27;;;;;;;5.68;5.05;;;;;;;20.39;68.51;96176.63;5027555;28;20210;-75